Time;durP1;ratioP1;P1;durP2;ratioP2;P2;SDS_P1;SDS_P2;PMS_P1;PMS_P2;Temp;Humidity;BMP_temperature;BMP_pressure;BME280_temperature;BME280_humidity;BME280_pressure;Samples;Min_cycle;Max_cycle;Signal;HPM_P1;HPM_P2
2021/04/17 00:00:18;;;;;;;9.00;6.07;;;1.40;99.90;;;;;;4994680;28;20046;-83
2021/04/17 00:02:45;;;;;;;8.68;5.63;;;1.40;99.90;;;;;;4995681;28;20137;-83
2021/04/17 00:05:12;;;;;;;7.78;5.75;;;1.40;99.90;;;;;;4995550;28;20068;-83
2021/04/17 00:07:39;;;;;;;7.18;5.40;;;1.40;99.90;;;;;;4994402;28;20137;-83
2021/04/17 00:10:06;;;;;;;8.45;6.10;;;1.40;99.90;;;;;;4994129;28;20054;-83
2021/04/17 00:12:32;;;;;;;9.43;5.95;;;1.40;99.90;;;;;;4995581;28;20096;-83
2021/04/17 00:14:59;;;;;;;14.00;6.28;;;1.30;99.90;;;;;;4993315;28;20133;-83
2021/04/17 00:17:25;;;;;;;10.70;7.28;;;1.30;99.90;;;;;;4994362;28;20100;-83
2021/04/17 00:19:53;;;;;;;9.65;7.00;;;1.30;99.90;;;;;;4994441;28;20089;-83
2021/04/17 00:22:19;;;;;;;13.10;7.80;;;1.20;99.90;;;;;;4994010;28;20050;-83
2021/04/17 00:24:45;;;;;;;9.57;6.55;;;1.20;99.90;;;;;;4994169;28;20089;-83
2021/04/17 00:27:11;;;;;;;10.32;6.50;;;1.10;99.90;;;;;;4993843;28;20084;-83
2021/04/17 00:29:38;;;;;;;9.13;6.63;;;1.10;99.90;;;;;;4995490;28;20092;-84
2021/04/17 00:32:07;;;;;;;13.27;7.45;;;1.10;99.90;;;;;;4995104;28;20093;-83
2021/04/17 00:34:34;;;;;;;15.40;8.00;;;1.20;99.90;;;;;;4995157;28;20404;-83
2021/04/17 00:37:01;;;;;;;10.13;7.63;;;1.10;99.90;;;;;;4994951;28;20053;-83
2021/04/17 00:39:27;;;;;;;14.65;6.50;;;1.10;99.90;;;;;;4994145;28;20058;-83
2021/04/17 00:41:53;;;;;;;12.30;8.05;;;1.20;99.90;;;;;;4993788;28;20406;-83
2021/04/17 00:44:20;;;;;;;14.15;7.20;;;1.20;99.90;;;;;;4993986;28;20385;-84
2021/04/17 00:46:46;;;;;;;10.68;6.38;;;1.30;99.90;;;;;;4993926;28;20050;-83
2021/04/17 00:49:12;;;;;;;12.45;7.82;;;1.30;99.90;;;;;;4993571;28;20116;-84
2021/04/17 00:51:40;;;;;;;15.60;8.85;;;1.30;99.90;;;;;;4994800;28;20054;-83
2021/04/17 00:54:07;;;;;;;10.38;7.78;;;1.30;99.90;;;;;;4994521;28;20562;-83
2021/04/17 00:56:33;;;;;;;16.02;9.85;;;1.30;99.90;;;;;;4993607;28;20054;-84
2021/04/17 00:59:00;;;;;;;14.18;9.23;;;1.40;99.90;;;;;;4993480;28;20050;-83
2021/04/17 01:01:27;;;;;;;15.18;10.70;;;1.30;99.90;;;;;;4994597;28;20054;-83
2021/04/17 01:03:56;;;;;;;16.42;10.20;;;1.20;99.90;;;;;;4993273;28;20505;-83
2021/04/17 01:06:42;;;;;;;15.88;10.32;;;1.20;99.90;;;;;;4993423;28;20050;-83
2021/04/17 01:09:32;;;;;;;17.08;9.27;;;1.20;99.90;;;;;;4993272;28;20058;-84
2021/04/17 01:12:09;;;;;;;11.95;8.20;;;1.20;99.90;;;;;;4994500;28;20133;-83
2021/04/17 01:14:36;;;;;;;18.30;10.10;;;1.10;99.90;;;;;;4994295;28;20170;-83
2021/04/17 01:17:05;;;;;;;14.35;9.35;;;1.10;99.90;;;;;;4993023;28;20145;-84
2021/04/17 01:19:46;;;;;;;14.00;7.85;;;1.10;99.90;;;;;;4993483;28;20050;-83
2021/04/17 01:22:20;;;;;;;12.73;7.93;;;1.00;99.90;;;;;;4994227;28;20140;-83
2021/04/17 01:25:08;;;;;;;14.57;8.05;;;1.00;99.90;;;;;;4994212;28;20049;-84
2021/04/17 01:27:36;;;;;;;9.50;6.40;;;1.00;99.90;;;;;;4994363;28;20137;-84
2021/04/17 01:30:23;;;;;;;9.73;6.18;;;1.00;99.90;;;;;;4992856;28;20053;-83
2021/04/17 01:32:49;;;;;;;10.07;6.63;;;1.10;99.90;;;;;;4992793;28;20484;-84
2021/04/17 01:35:20;;;;;;;12.82;6.43;;;1.10;99.90;;;;;;4992863;28;20046;-83
2021/04/17 01:37:52;;;;;;;7.75;5.43;;;1.10;99.90;;;;;;4994095;28;20069;-83
2021/04/17 01:40:30;;;;;;;7.97;5.75;;;1.00;99.90;;;;;;4993033;28;20129;-83
2021/04/17 01:42:57;;;;;;;8.07;5.93;;;1.10;99.90;;;;;;4993744;28;20050;-83
2021/04/17 01:45:26;;;;;;;9.25;5.97;;;1.00;99.90;;;;;;4992779;28;20166;-83
2021/04/17 01:47:56;;;;;;;11.43;5.60;;;1.00;99.90;;;;;;4992539;28;20046;-83
2021/04/17 01:50:27;;;;;;;9.77;5.63;;;0.90;99.90;;;;;;4993916;28;20435;-83
2021/04/17 01:52:55;;;;;;;9.07;5.75;;;0.90;99.90;;;;;;4993829;28;20141;-83
2021/04/17 01:55:22;;;;;;;11.27;6.15;;;1.00;99.90;;;;;;4992792;28;20452;-83
2021/04/17 01:57:50;;;;;;;10.45;6.38;;;1.00;99.90;;;;;;4992475;28;20153;-84
2021/04/17 02:00:18;;;;;;;12.90;6.30;;;1.00;99.90;;;;;;4993357;28;20050;-83
2021/04/17 02:02:45;;;;;;;21.88;7.65;;;0.90;99.90;;;;;;4992182;28;20133;-83
2021/04/17 02:05:12;;;;;;;15.82;8.10;;;0.90;99.90;;;;;;4993375;28;20108;-83
2021/04/17 02:07:38;;;;;;;16.98;7.25;;;1.00;99.90;;;;;;4992275;28;20081;-83
2021/04/17 02:10:05;;;;;;;8.45;6.35;;;0.90;99.90;;;;;;4992367;28;20129;-83
2021/04/17 02:12:31;;;;;;;10.32;7.13;;;0.90;99.90;;;;;;4992219;28;20077;-83
2021/04/17 02:14:59;;;;;;;14.45;6.90;;;0.80;99.90;;;;;;4992485;28;20108;-83
2021/04/17 02:17:33;;;;;;;7.35;5.45;;;0.80;99.90;;;;;;4993216;28;20085;-83
2021/04/17 02:20:03;;;;;;;10.05;6.45;;;0.70;99.90;;;;;;4993379;28;20495;-83
2021/04/17 02:22:31;;;;;;;9.77;6.00;;;0.70;99.90;;;;;;4992394;28;20501;-83
2021/04/17 02:24:58;;;;;;;8.95;6.40;;;0.50;99.90;;;;;;4992173;28;20078;-83
2021/04/17 02:27:25;;;;;;;7.35;6.00;;;0.40;99.90;;;;;;4991840;28;20074;-83
2021/04/17 02:29:53;;;;;;;11.02;6.30;;;0.30;99.90;;;;;;4993034;28;20064;-83
2021/04/17 02:32:19;;;;;;;10.50;6.78;;;0.30;99.90;;;;;;4990290;28;20579;-83
2021/04/17 02:34:46;;;;;;;9.32;5.88;;;0.30;99.90;;;;;;4992147;28;20141;-83
2021/04/17 02:37:13;;;;;;;8.63;6.65;;;0.30;99.90;;;;;;4994636;28;20054;-83
2021/04/17 02:39:41;;;;;;;12.15;6.75;;;0.40;99.90;;;;;;4996241;28;20054;-83
2021/04/17 02:42:08;;;;;;;9.27;6.82;;;0.30;99.90;;;;;;4995879;28;20485;-83
2021/04/17 02:44:34;;;;;;;15.00;7.30;;;0.30;99.90;;;;;;4996172;28;20046;-83
2021/04/17 02:47:01;;;;;;;8.10;6.35;;;0.40;99.90;;;;;;4995865;28;20478;-83
2021/04/17 02:49:28;;;;;;;9.73;6.47;;;0.40;99.90;;;;;;4996013;28;20046;-84
2021/04/17 02:51:54;;;;;;;12.68;6.40;;;0.40;99.90;;;;;;4997139;28;20104;-83
2021/04/17 02:54:20;;;;;;;9.57;6.30;;;0.40;99.90;;;;;;4995770;28;20125;-83
2021/04/17 02:56:47;;;;;;;10.10;6.80;;;0.30;99.90;;;;;;4996037;28;20137;-84
2021/04/17 02:59:13;;;;;;;9.57;6.55;;;0.30;99.90;;;;;;4995874;28;20051;-83
2021/04/17 03:01:40;;;;;;;12.38;6.82;;;0.40;99.90;;;;;;4996770;28;20141;-83
2021/04/17 03:04:07;;;;;;;10.07;7.22;;;0.50;99.90;;;;;;4995708;28;20451;-84
2021/04/17 03:06:33;;;;;;;7.63;6.28;;;0.50;99.90;;;;;;4995836;28;20462;-83
2021/04/17 03:09:00;;;;;;;14.43;6.63;;;0.60;99.90;;;;;;4995447;28;20502;-84
2021/04/17 03:11:26;;;;;;;10.00;7.15;;;0.50;99.90;;;;;;4995553;28;20107;-83
2021/04/17 03:13:57;;;;;;;11.18;6.20;;;0.50;99.90;;;;;;4996399;28;20077;-83
2021/04/17 03:16:24;;;;;;;13.77;6.65;;;0.50;99.90;;;;;;4995496;28;20505;-83
2021/04/17 03:18:51;;;;;;;9.43;6.25;;;0.50;99.90;;;;;;4996518;28;20495;-83
2021/04/17 03:21:18;;;;;;;10.43;6.22;;;0.50;99.90;;;;;;4996623;28;20047;-83
2021/04/17 03:23:44;;;;;;;9.65;6.65;;;0.50;99.90;;;;;;4995314;28;20046;-83
2021/04/17 03:26:10;;;;;;;11.30;6.65;;;0.50;99.90;;;;;;4996298;28;20051;-83
2021/04/17 03:28:37;;;;;;;9.85;6.40;;;0.40;99.90;;;;;;4995419;28;20054;-83
2021/04/17 03:31:04;;;;;;;13.23;7.18;;;0.60;99.90;;;;;;4995078;28;20050;-84
2021/04/17 03:33:30;;;;;;;9.75;6.70;;;0.50;99.90;;;;;;4996471;28;20537;-83
2021/04/17 03:35:56;;;;;;;10.25;6.18;;;0.60;99.90;;;;;;4995922;28;20137;-83
2021/04/17 03:38:23;;;;;;;10.50;7.03;;;0.60;99.90;;;;;;4994927;28;20058;-83
2021/04/17 03:40:49;;;;;;;14.73;7.63;;;0.50;99.90;;;;;;4995263;28;20078;-83
2021/04/17 03:43:16;;;;;;;11.63;6.45;;;0.50;99.90;;;;;;4996336;28;20133;-83
2021/04/17 03:45:42;;;;;;;12.50;6.90;;;0.50;99.90;;;;;;4995100;28;20156;-84
2021/04/17 03:48:08;;;;;;;14.95;7.18;;;0.50;99.90;;;;;;4995733;28;20046;-82
2021/04/17 03:50:35;;;;;;;11.95;6.60;;;0.40;99.90;;;;;;4994838;28;20050;-84
2021/04/17 03:53:01;;;;;;;16.33;6.53;;;0.40;99.90;;;;;;4994539;28;20133;-83
2021/04/17 03:55:27;;;;;;;8.43;6.03;;;0.40;99.90;;;;;;4994999;28;20092;-84
2021/04/17 03:57:54;;;;;;;8.70;5.93;;;0.30;99.90;;;;;;4995793;28;20100;-83
2021/04/17 04:00:20;;;;;;;12.85;6.05;;;0.30;99.90;;;;;;4994633;28;20146;-83
2021/04/17 04:02:47;;;;;;;12.35;6.43;;;0.20;99.90;;;;;;4995726;28;20058;-84
2021/04/17 04:05:15;;;;;;;10.32;5.32;;;0.10;99.90;;;;;;4994590;28;20132;-84
2021/04/17 04:07:41;;;;;;;7.40;5.43;;;0.10;99.90;;;;;;4994500;28;20141;-83
2021/04/17 04:10:09;;;;;;;11.10;6.25;;;0.10;99.90;;;;;;4994117;28;20493;-83
2021/04/17 04:12:35;;;;;;;9.00;6.65;;;0.00;99.90;;;;;;4994530;28;20050;-83
2021/04/17 04:15:05;;;;;;;13.40;7.00;;;0.00;99.90;;;;;;4994432;28;20145;-84
2021/04/17 04:17:31;;;;;;;18.33;8.30;;;0.00;99.90;;;;;;4995592;28;20078;-83
2021/04/17 04:19:57;;;;;;;15.38;9.00;;;0.10;99.90;;;;;;4995367;28;20097;-84
2021/04/17 04:22:23;;;;;;;19.75;9.10;;;0.10;99.90;;;;;;4994384;28;20172;-83
2021/04/17 04:24:50;;;;;;;13.07;8.57;;;0.20;99.90;;;;;;4995396;28;20054;-83
2021/04/17 04:27:16;;;;;;;18.25;8.93;;;0.30;99.90;;;;;;4994120;28;20050;-83
2021/04/17 04:29:42;;;;;;;12.18;7.35;;;0.40;99.90;;;;;;4994135;28;20133;-84
2021/04/17 04:32:09;;;;;;;14.25;8.57;;;0.50;99.90;;;;;;4995010;28;20058;-84
2021/04/17 04:34:35;;;;;;;13.50;7.35;;;0.60;99.90;;;;;;4995301;28;20046;-84
2021/04/17 04:37:01;;;;;;;10.30;6.55;;;0.60;99.90;;;;;;4994147;28;20050;-84
2021/04/17 04:39:27;;;;;;;11.27;6.72;;;0.60;99.90;;;;;;4994857;28;20484;-84
2021/04/17 04:41:54;;;;;;;13.00;7.05;;;0.50;99.90;;;;;;4993962;28;20392;-84
2021/04/17 04:44:20;;;;;;;9.82;6.10;;;0.50;99.90;;;;;;4993783;28;20410;-84
2021/04/17 04:46:46;;;;;;;14.25;7.28;;;0.50;99.90;;;;;;4994002;28;20546;-84
2021/04/17 04:49:14;;;;;;;11.00;7.43;;;0.60;99.90;;;;;;4993660;28;20050;-84
2021/04/17 04:51:40;;;;;;;13.55;8.13;;;0.60;99.90;;;;;;4994791;28;20058;-84
2021/04/17 04:54:07;;;;;;;11.45;7.32;;;0.70;99.90;;;;;;5009401;28;20132;-84
2021/04/17 04:56:33;;;;;;;18.13;7.35;;;0.80;99.90;;;;;;5013345;28;20050;-84
2021/04/17 04:58:59;;;;;;;14.00;7.20;;;0.90;99.90;;;;;;5014374;28;20050;-83
2021/04/17 05:01:25;;;;;;;12.73;7.03;;;1.00;99.90;;;;;;5012381;28;20135;-83
2021/04/17 05:03:52;;;;;;;13.43;7.55;;;1.00;99.90;;;;;;5014190;28;20446;-84
2021/04/17 05:06:18;;;;;;;11.77;7.35;;;1.10;99.90;;;;;;5013307;28;20054;-83
2021/04/17 05:08:45;;;;;;;16.83;9.52;;;1.10;99.90;;;;;;5013168;28;20076;-84
2021/04/17 05:11:11;;;;;;;13.05;7.38;;;1.20;99.90;;;;;;5013186;28;20136;-84
2021/04/17 05:13:38;;;;;;;10.45;6.95;;;1.30;99.90;;;;;;5014228;28;20050;-84
2021/04/17 05:16:04;;;;;;;10.13;6.88;;;1.30;99.90;;;;;;5012799;28;20058;-83
2021/04/17 05:18:30;;;;;;;9.52;7.05;;;1.40;99.90;;;;;;5012702;28;20049;-83
2021/04/17 05:20:57;;;;;;;17.08;11.05;;;1.50;99.90;;;;;;5014153;28;20141;-84
2021/04/17 05:23:25;;;;;;;11.77;7.32;;;1.60;99.90;;;;;;5012854;28;20073;-84
2021/04/17 05:25:51;;;;;;;13.25;7.70;;;1.70;99.90;;;;;;5012747;28;20135;-84
2021/04/17 05:28:18;;;;;;;13.52;8.63;;;1.80;99.90;;;;;;5013434;28;20050;-84
2021/04/17 05:30:44;;;;;;;19.70;11.10;;;1.90;99.90;;;;;;5012456;28;20140;-83
2021/04/17 05:33:10;;;;;;;28.02;19.33;;;2.00;99.90;;;;;;5012556;28;20077;-84
2021/04/17 05:35:37;;;;;;;14.63;8.65;;;2.10;99.90;;;;;;5045276;28;20502;-84
2021/04/17 05:38:03;;;;;;;16.25;8.30;;;2.10;99.90;;;;;;5013724;28;20137;-84
2021/04/17 05:40:29;;;;;;;15.93;9.65;;;2.20;99.90;;;;;;5013711;28;20056;-84
2021/04/17 05:42:56;;;;;;;21.63;11.27;;;2.20;99.90;;;;;;5013474;28;20145;-84
2021/04/17 05:45:22;;;;;;;26.98;12.77;;;2.30;99.90;;;;;;5045291;28;20069;-83
2021/04/17 05:47:48;;;;;;;20.33;10.35;;;2.40;99.90;;;;;;5045032;28;20128;-84
2021/04/17 05:50:15;;;;;;;17.75;8.68;;;2.60;99.90;;;;;;5013540;28;20081;-85
2021/04/17 05:52:41;;;;;;;13.27;8.52;;;2.70;99.90;;;;;;5012438;28;20050;-84
2021/04/17 05:55:09;;;;;;;15.90;9.38;;;2.90;99.90;;;;;;5013206;28;20050;-84
2021/04/17 05:57:36;;;;;;;14.90;7.03;;;3.10;99.90;;;;;;5012263;28;20128;-84
2021/04/17 06:00:06;;;;;;;15.77;8.27;;;3.20;99.90;;;;;;5011762;28;20100;-83
2021/04/17 06:02:33;;;;;;;22.33;10.48;;;3.20;99.90;;;;;;5012161;28;20062;-84
2021/04/17 06:04:59;;;;;;;19.40;6.85;;;3.50;99.90;;;;;;5013237;28;20103;-84
2021/04/17 06:07:26;;;;;;;158.07;120.07;;;3.60;99.90;;;;;;5013218;28;20180;-84
2021/04/17 06:09:52;;;;;;;23.02;9.90;;;3.50;99.90;;;;;;5044889;28;20585;-84
2021/04/17 06:12:18;;;;;;;14.40;5.90;;;3.40;99.90;;;;;;5011032;28;20133;-84
2021/04/17 06:14:44;;;;;;;17.33;7.82;;;3.40;99.90;;;;;;5012182;28;20046;-84
2021/04/17 06:17:11;;;;;;;15.07;5.40;;;3.50;99.90;;;;;;5012006;28;20054;-84
2021/04/17 06:19:37;;;;;;;17.80;5.15;;;3.70;99.90;;;;;;5012040;28;20045;-84
2021/04/17 06:22:04;;;;;;;11.35;5.00;;;3.90;99.90;;;;;;5012808;28;20076;-84
2021/04/17 06:24:30;;;;;;;8.00;3.97;;;4.20;99.90;;;;;;5011823;28;20084;-83
2021/04/17 06:26:57;;;;;;;9.48;4.13;;;4.20;99.90;;;;;;5011704;28;20053;-83
2021/04/17 06:29:23;;;;;;;6.22;3.40;;;4.10;99.90;;;;;;5011841;28;20054;-84
2021/04/17 06:31:50;;;;;;;9.70;3.88;;;4.10;99.90;;;;;;5013074;28;20150;-84
2021/04/17 06:34:16;;;;;;;7.18;3.72;;;4.20;99.90;;;;;;5013083;28;20449;-83
2021/04/17 06:36:43;;;;;;;3.72;3.17;;;4.30;99.90;;;;;;5013178;28;20065;-84
2021/04/17 06:39:10;;;;;;;5.97;3.50;;;4.50;99.90;;;;;;5012759;28;20050;-84
2021/04/17 06:41:40;;;;;;;5.35;3.28;;;4.60;99.90;;;;;;5011750;28;20116;-83
2021/04/17 06:44:08;;;;;;;29.95;15.73;;;4.60;99.90;;;;;;5012893;28;20136;-84
2021/04/17 06:46:36;;;;;;;12.70;6.85;;;4.60;99.90;;;;;;5044880;28;20140;-84
2021/04/17 06:49:05;;;;;;;5.93;3.38;;;4.60;99.90;;;;;;5012781;28;20100;-84
2021/04/17 06:51:35;;;;;;;6.85;4.13;;;4.40;99.90;;;;;;5012698;28;20053;-84
2021/04/17 06:54:02;;;;;;;6.80;4.03;;;4.40;99.90;;;;;;5012827;28;20108;-84
2021/04/17 06:56:28;;;;;;;8.35;3.13;;;4.30;99.90;;;;;;5011873;28;20078;-84
2021/04/17 06:58:55;;;;;;;5.28;3.33;;;4.20;99.90;;;;;;5012689;28;20140;-84
2021/04/17 07:01:22;;;;;;;4.25;3.13;;;4.10;99.90;;;;;;5011297;28;20154;-84
2021/04/17 07:03:49;;;;;;;5.55;3.08;;;4.00;99.90;;;;;;5012748;28;20053;-84
2021/04/17 07:06:15;;;;;;;4.38;2.90;;;4.00;99.90;;;;;;5012566;28;20058;-84
2021/04/17 07:08:42;;;;;;;12.35;5.90;;;4.10;99.90;;;;;;5011501;28;20073;-84
2021/04/17 07:11:09;;;;;;;8.80;4.65;;;4.00;99.90;;;;;;5012520;28;20045;-84
2021/04/17 07:13:37;;;;;;;7.25;4.13;;;3.90;99.90;;;;;;5011505;28;20085;-84
2021/04/17 07:16:11;;;;;;;6.85;4.20;;;3.80;99.90;;;;;;5011409;28;20558;-84
2021/04/17 07:18:39;;;;;;;5.30;3.70;;;3.90;99.90;;;;;;5011480;28;20501;-84
2021/04/17 07:21:15;;;;;;;5.22;2.60;;;4.00;99.90;;;;;;5012588;28;20050;-84
2021/04/17 07:23:46;;;;;;;4.60;3.25;;;4.10;99.90;;;;;;5014228;28;20050;-84
2021/04/17 07:26:20;;;;;;;5.90;3.60;;;4.20;99.90;;;;;;5014806;28;20221;-83
2021/04/17 07:28:58;;;;;;;4.28;3.30;;;4.30;99.90;;;;;;5015000;28;20045;-84
2021/04/17 07:31:29;;;;;;;4.90;2.90;;;4.30;99.90;;;;;;5015627;28;20609;-83
2021/04/17 07:33:57;;;;;;;7.35;2.60;;;4.40;99.90;;;;;;5012586;28;20418;-84
2021/04/17 07:36:57;;;;;;;4.90;2.67;;;4.30;99.90;;;;;;5015743;28;20457;-84
2021/04/17 07:39:29;;;;;;;4.43;2.80;;;4.40;99.90;;;;;;5006916;28;20046;-83
2021/04/17 07:42:05;;;;;;;6.72;3.13;;;4.60;99.90;;;;;;5006222;28;20046;-84
2021/04/17 07:44:36;;;;;;;4.00;2.83;;;4.60;99.90;;;;;;5005283;28;20582;-84
2021/04/17 07:47:04;;;;;;;3.15;2.47;;;4.70;99.90;;;;;;5013888;28;20065;-83
2021/04/17 07:49:30;;;;;;;3.63;2.10;;;5.00;99.90;;;;;;5014718;28;20133;-84
2021/04/17 07:52:11;;;;;;;2.92;2.45;;;5.10;99.90;;;;;;5015135;28;20056;-84
2021/04/17 07:54:39;;;;;;;10.23;4.88;;;5.20;99.90;;;;;;5015338;28;20483;-84
2021/04/17 07:57:10;;;;;;;8.30;5.90;;;5.30;99.90;;;;;;5014100;28;20081;-84
2021/04/17 07:59:38;;;;;;;4.93;3.70;;;5.40;99.90;;;;;;5015468;28;20138;-84
2021/04/17 08:02:05;;;;;;;4.65;3.25;;;5.10;99.90;;;;;;5014127;28;20149;-84
2021/04/17 08:04:32;;;;;;;3.00;2.45;;;5.20;99.90;;;;;;5015389;28;20046;-84
2021/04/17 08:07:00;;;;;;;5.15;3.03;;;5.30;99.90;;;;;;5015044;28;20081;-84
2021/04/17 08:09:30;;;;;;;6.78;2.45;;;5.30;99.90;;;;;;5014218;28;20132;-83
2021/04/17 08:11:59;;;;;;;3.10;2.75;;;5.30;99.90;;;;;;5014458;28;20467;-84
2021/04/17 08:14:27;;;;;;;4.93;3.22;;;5.60;99.90;;;;;;5014509;28;20557;-84
2021/04/17 08:16:53;;;;;;;4.30;2.53;;;5.60;99.90;;;;;;5015036;28;20132;-83
2021/04/17 08:19:21;;;;;;;2.88;2.25;;;5.90;99.90;;;;;;5015012;28;20050;-83
2021/04/17 08:21:50;;;;;;;2.38;2.15;;;6.50;99.90;;;;;;5014760;28;20503;-83
2021/04/17 08:24:22;;;;;;;4.07;1.92;;;6.80;99.90;;;;;;5013809;28;20081;-84
2021/04/17 08:26:51;;;;;;;4.28;2.88;;;7.00;99.90;;;;;;5013768;28;20141;-84
2021/04/17 08:29:49;;;;;;;4.40;1.90;;;7.30;99.90;;;;;;5013883;28;20409;-84
2021/04/17 08:32:33;;;;;;;3.20;1.98;;;7.40;99.90;;;;;;5013071;28;20107;-83
2021/04/17 08:35:13;;;;;;;3.22;1.90;;;7.20;99.90;;;;;;5013976;28;20446;-83
2021/04/17 08:37:51;;;;;;;5.93;2.17;;;7.40;99.90;;;;;;5013676;28;20138;-84
2021/04/17 08:40:36;;;;;;;2.80;2.40;;;7.00;99.90;;;;;;5013510;28;20050;-83
2021/04/17 08:43:27;;;;;;;3.67;2.50;;;6.80;99.90;;;;;;5013461;28;20137;-84
2021/04/17 08:46:11;;;;;;;5.90;2.10;;;6.70;99.90;;;;;;5014567;28;20137;-83
2021/04/17 08:48:58;;;;;;;5.75;2.17;;;7.00;99.90;;;;;;5013402;28;20057;-84
2021/04/17 08:51:30;;;;;;;4.63;2.30;;;7.20;99.90;;;;;;5007501;28;20148;-84
2021/04/17 08:54:05;;;;;;;2.38;2.17;;;7.00;99.90;;;;;;5014165;28;20087;-83
2021/04/17 08:57:00;;;;;;;2.50;2.30;;;6.30;99.90;;;;;;5014369;28;20133;-83
2021/04/17 08:59:34;;;;;;;3.67;2.28;;;6.10;99.90;;;;;;5014459;28;20078;-83
2021/04/17 09:02:07;;;;;;;8.23;2.42;;;6.30;99.90;;;;;;5014167;28;20057;-83
2021/04/17 09:04:37;;;;;;;;;;;6.30;99.90;;;;;;5013564;28;20498;-83
2021/04/17 09:07:16;;;;;;;4.10;2.63;;;5.90;99.90;;;;;;5002702;28;20285;-84
2021/04/17 09:09:42;;;;;;;3.78;2.60;;;5.60;99.90;;;;;;5008252;28;20127;-83
2021/04/17 09:12:08;;;;;;;2.58;2.25;;;5.40;99.90;;;;;;5012653;28;20085;-83
2021/04/17 09:14:36;;;;;;;3.45;2.58;;;5.50;99.90;;;;;;5004737;28;20581;-83
2021/04/17 09:17:26;;;;;;;4.45;2.60;;;5.40;99.90;;;;;;5003413;28;20423;-83
2021/04/17 09:19:52;;;;;;;4.25;2.78;;;5.50;99.90;;;;;;5036469;28;20080;-83
2021/04/17 09:22:28;;;;;;;3.63;2.60;;;5.70;99.90;;;;;;5012994;28;20141;-83
2021/04/17 09:25:06;;;;;;;8.00;3.08;;;5.60;99.90;;;;;;5003017;28;20494;-83
2021/04/17 09:27:33;;;;;;;19.65;17.02;;;5.50;99.90;;;;;;5003421;28;20124;-83
2021/04/17 09:30:20;;;;;;;3.25;2.90;;;5.40;99.90;;;;;;5031404;28;20069;-83
2021/04/17 09:32:56;;;;;;;4.82;2.70;;;5.50;99.90;;;;;;5013735;28;20085;-83
2021/04/17 09:35:29;;;;;;;4.93;2.67;;;5.90;99.90;;;;;;5012658;28;20482;-83
2021/04/17 09:38:14;;;;;;;10.55;9.20;;;6.60;99.90;;;;;;5013594;28;20081;-84
2021/04/17 09:40:46;;;;;;;4.25;2.33;;;6.70;99.90;;;;;;5013624;28;20145;-83
2021/04/17 09:43:20;;;;;;;6.68;3.50;;;7.50;99.90;;;;;;5012198;28;20454;-83
2021/04/17 09:45:49;;;;;;;88.47;51.72;;;7.90;99.90;;;;;;5006268;28;20197;-83
2021/04/17 09:48:15;;;;;;;76.45;35.90;;;8.10;99.90;;;;;;5011103;28;20050;-84
2021/04/17 09:50:42;;;;;;;7.03;2.80;;;8.50;99.90;;;;;;5044975;28;20407;-84
2021/04/17 09:53:15;;;;;;;5.75;2.70;;;8.90;99.90;;;;;;5013212;28;20049;-84
2021/04/17 09:55:51;;;;;;;6.65;2.80;;;9.30;99.90;;;;;;5012013;28;20054;-83
2021/04/17 09:58:30;;;;;;;14.93;8.57;;;9.00;99.90;;;;;;5013366;28;20046;-83
2021/04/17 10:01:08;;;;;;;14.50;13.02;;;9.10;99.90;;;;;;5013062;28;20526;-83
2021/04/17 10:03:37;;;;;;;6.30;5.70;;;8.50;99.90;;;;;;5011938;28;20435;-83
2021/04/17 10:06:21;;;;;;;8.27;5.65;;;8.60;99.90;;;;;;5011626;28;20063;-83
2021/04/17 10:08:47;;;;;;;6.00;4.10;;;8.60;99.90;;;;;;5011754;28;20128;-83
2021/04/17 10:11:26;;;;;;;4.00;3.20;;;8.70;99.90;;;;;;5011879;28;20076;-83
2021/04/17 10:13:53;;;;;;;3.45;2.95;;;8.60;99.90;;;;;;5012858;28;20054;-83
2021/04/17 10:16:32;;;;;;;5.15;2.70;;;8.60;99.90;;;;;;5011952;28;20471;-83
2021/04/17 10:19:00;;;;;;;2.42;1.95;;;8.10;99.90;;;;;;5013097;28;20432;-83
2021/04/17 10:21:29;;;;;;;5.97;1.90;;;7.50;99.90;;;;;;5011146;28;20092;-83
2021/04/17 10:24:14;;;;;;;5.05;1.92;;;7.70;99.90;;;;;;5012134;28;20561;-83
2021/04/17 10:26:58;;;;;;;5.00;2.97;;;7.30;99.90;;;;;;5012117;28;20073;-83
2021/04/17 10:29:48;;;;;;;8.15;4.25;;;7.00;99.90;;;;;;5012341;28;20083;-83
2021/04/17 10:32:23;;;;;;;4.05;3.20;;;6.60;99.90;;;;;;5010540;28;20128;-83
2021/04/17 10:34:52;;;;;;;2.17;1.65;;;6.50;99.90;;;;;;5012111;28;20128;-84
2021/04/17 10:37:24;;;;;;;4.50;1.80;;;6.50;99.90;;;;;;5010789;28;20136;-83
2021/04/17 10:40:11;;;;;;;3.83;2.10;;;6.70;99.90;;;;;;5012220;28;20129;-83
2021/04/17 10:42:46;;;;;;;7.78;2.58;;;6.90;99.90;;;;;;5010643;28;20478;-83
2021/04/17 10:45:18;;;;;;;2.42;1.85;;;7.00;99.90;;;;;;5011161;28;20077;-83
2021/04/17 10:47:56;;;;;;;4.05;1.88;;;6.90;99.90;;;;;;5010697;28;20046;-84
2021/04/17 10:50:24;;;;;;;4.57;3.45;;;6.60;99.90;;;;;;5010920;28;20078;-84
2021/04/17 10:53:04;;;;;;;6.50;4.63;;;6.60;99.90;;;;;;5011879;28;20115;-83
2021/04/17 10:55:46;;;;;;;4.90;2.63;;;6.40;99.90;;;;;;5011999;28;20104;-84
2021/04/17 10:58:33;;;;;;;4.45;2.30;;;6.20;99.90;;;;;;5013221;28;20104;-84
2021/04/17 11:01:09;;;;;;;3.15;2.28;;;6.10;99.90;;;;;;5015694;28;20140;-83
2021/04/17 11:03:50;;;;;;;3.13;2.03;;;5.90;99.90;;;;;;5015680;28;20056;-84
2021/04/17 11:06:32;;;;;;;2.35;2.05;;;5.80;99.90;;;;;;5014283;28;20054;-84
2021/04/17 11:09:14;;;;;;;4.68;2.20;;;5.80;99.90;;;;;;5015665;28;20565;-83
2021/04/17 11:11:58;;;;;;;4.10;2.30;;;5.60;99.90;;;;;;5014270;28;20104;-84
2021/04/17 11:14:25;;;;;;;;;;;5.60;99.90;;;;;;5015875;28;20078;-84
2021/04/17 11:16:53;;;;;;;6.65;3.17;;;5.60;99.90;;;;;;5015438;28;20015;-83
2021/04/17 11:19:36;;;;;;;5.28;2.55;;;5.70;99.90;;;;;;5014380;28;20061;-83
2021/04/17 11:22:22;;;;;;;14.77;6.55;;;5.80;99.90;;;;;;5015226;28;20073;-84
2021/04/17 11:25:05;;;;;;;7.35;2.92;;;5.80;99.90;;;;;;5015279;28;20096;-84
2021/04/17 11:27:33;;;;;;;4.10;1.73;;;5.90;99.90;;;;;;5014129;28;20481;-83
2021/04/17 11:30:01;;;;;;;4.03;1.60;;;5.90;99.90;;;;;;5014107;28;20104;-83
2021/04/17 11:32:27;;;;;;;206.25;99.40;;;6.20;99.90;;;;;;5015098;28;20136;-83
2021/04/17 11:34:55;;;;;;;684.00;336.42;;;6.40;99.90;;;;;;5046558;28;20054;-84
2021/04/17 11:37:23;;;;;;;38.95;17.00;;;6.40;99.90;;;;;;5046656;28;20137;-84
2021/04/17 11:39:50;;;;;;;7.28;4.13;;;6.60;99.90;;;;;;5046403;28;20100;-83
2021/04/17 11:42:17;;;;;;;6.88;3.28;;;6.80;99.90;;;;;;5014438;28;20042;-83
2021/04/17 11:44:44;;;;;;;4.05;2.05;;;7.10;99.90;;;;;;5014593;28;20058;-84
2021/04/17 11:47:10;;;;;;;4.72;1.90;;;7.30;99.90;;;;;;5014520;28;20482;-84
2021/04/17 11:49:36;;;;;;;5.78;2.50;;;7.50;99.90;;;;;;5013447;28;20053;-84
2021/04/17 11:52:03;;;;;;;3.22;1.60;;;7.90;99.90;;;;;;5014111;28;20455;-84
2021/04/17 11:54:29;;;;;;;6.85;2.10;;;8.20;99.90;;;;;;5013400;28;20136;-84
2021/04/17 11:56:55;;;;;;;12.55;6.55;;;8.50;99.90;;;;;;5013218;28;20491;-84
2021/04/17 11:59:22;;;;;;;6.20;3.55;;;8.40;99.90;;;;;;5013327;28;20046;-84
2021/04/17 12:01:48;;;;;;;3.72;2.78;;;8.40;99.90;;;;;;5013825;28;20092;-84
2021/04/17 12:04:17;;;;;;;3.10;2.53;;;8.40;99.90;;;;;;5014502;28;20508;-83
2021/04/17 12:06:43;;;;;;;6.68;3.05;;;8.30;99.90;;;;;;5013162;28;20073;-83
2021/04/17 12:09:09;;;;;;;6.35;3.15;;;8.30;99.90;;;;;;5012312;28;20145;-84
2021/04/17 12:11:35;;;;;;;2.50;2.30;;;8.30;99.90;;;;;;5012383;28;20124;-84
2021/04/17 12:14:02;;;;;;;5.65;2.33;;;8.40;99.90;;;;;;5013033;28;20057;-83
2021/04/17 12:16:29;;;;;;;3.65;1.52;;;8.40;99.90;;;;;;5014044;28;20050;-83
2021/04/17 12:18:58;;;;;;;3.65;1.85;;;8.40;99.90;;;;;;5012771;28;20054;-83
2021/04/17 12:21:24;;;;;;;4.32;2.30;;;8.30;99.90;;;;;;5012896;28;20128;-83
2021/04/17 12:23:52;;;;;;;3.00;1.90;;;8.30;99.90;;;;;;5014006;28;20136;-83
2021/04/17 12:26:18;;;;;;;4.50;1.42;;;8.40;99.90;;;;;;5012570;28;20102;-83
2021/04/17 12:28:45;;;;;;;4.05;1.85;;;8.50;99.90;;;;;;5012626;28;20133;-83
2021/04/17 12:31:11;;;;;;;6.55;2.10;;;8.80;99.90;;;;;;5013676;28;20465;-83
2021/04/17 12:33:37;;;;;;;4.28;1.80;;;9.20;99.90;;;;;;5012506;28;20049;-83
2021/04/17 12:36:08;;;;;;;2.47;1.70;;;9.50;99.90;;;;;;5012493;28;20490;-83
2021/04/17 12:38:34;;;;;;;1.67;1.52;;;9.50;99.90;;;;;;5013526;28;20136;-84
2021/04/17 12:41:00;;;;;;;7.00;2.00;;;10.00;99.90;;;;;;5012367;28;20107;-84
2021/04/17 12:43:26;;;;;;;3.28;1.52;;;10.50;99.90;;;;;;5013692;28;20140;-83
2021/04/17 12:45:52;;;;;;;3.03;2.40;;;10.70;99.90;;;;;;5012261;28;20125;-83
2021/04/17 12:48:19;;;;;;;3.55;1.65;;;10.60;99.90;;;;;;5011966;28;20064;-83
2021/04/17 12:50:48;;;;;;;5.55;2.03;;;10.70;99.90;;;;;;5012163;28;20130;-83
2021/04/17 12:53:14;;;;;;;2.70;1.88;;;10.70;99.90;;;;;;5012000;28;20092;-83
2021/04/17 12:55:40;;;;;;;3.58;1.85;;;10.90;99.90;;;;;;5012281;28;20050;-83
2021/04/17 12:58:06;;;;;;;3.53;2.47;;;11.10;99.90;;;;;;5011960;28;20042;-83
2021/04/17 13:00:32;;;;;;;5.82;1.92;;;11.10;99.90;;;;;;5012000;28;20145;-83
2021/04/17 13:02:59;;;;;;;8.48;2.45;;;10.90;99.90;;;;;;5011706;28;20081;-83
2021/04/17 13:05:25;;;;;;;5.25;2.45;;;10.50;99.90;;;;;;5012030;28;20486;-83